createdAt,value
2023-07-24T00:00:17.823Z,50.98
2023-07-24T00:02:44.750Z,50.75
2023-07-24T00:05:11.666Z,51.70
2023-07-24T00:07:38.382Z,51.80
2023-07-24T00:10:05.499Z,51.74
2023-07-24T00:12:32.252Z,52.11
2023-07-24T00:14:59.046Z,52.34
2023-07-24T00:17:26.042Z,52.91
2023-07-24T00:19:52.910Z,52.68
2023-07-24T00:22:19.612Z,53.08
2023-07-24T00:24:46.368Z,52.98
2023-07-24T00:27:13.463Z,53.34
2023-07-24T00:29:40.469Z,53.14
2023-07-24T00:32:07.572Z,53.46
2023-07-24T00:34:34.258Z,53.55
2023-07-24T00:37:01.343Z,53.78
2023-07-24T00:39:29.893Z,54.71
2023-07-24T00:41:56.901Z,55.33
2023-07-24T00:44:23.609Z,55.56
2023-07-24T00:46:50.657Z,55.54
2023-07-24T00:49:17.840Z,55.89
2023-07-24T00:51:46.175Z,56.18
2023-07-24T00:54:13.446Z,56.21
2023-07-24T00:56:40.764Z,55.76
2023-07-24T00:59:07.674Z,55.69
2023-07-24T01:01:34.853Z,55.75
2023-07-24T01:04:01.644Z,55.58
2023-07-24T01:06:29.013Z,55.89
2023-07-24T01:08:56.677Z,55.98
2023-07-24T01:11:30.342Z,56.15
2023-07-24T01:14:03.564Z,56.16
2023-07-24T01:16:38.769Z,56.63
2023-07-24T01:19:07.374Z,55.36
2023-07-24T01:21:35.331Z,55.33
2023-07-24T01:24:13.205Z,55.59
2023-07-24T01:26:40.385Z,56.62
2023-07-24T01:29:07.065Z,57.02
2023-07-24T01:31:33.910Z,57.29
2023-07-24T01:34:00.869Z,58.79
2023-07-24T01:36:27.997Z,59.06
2023-07-24T01:38:55.398Z,59.78
2023-07-24T01:41:22.236Z,59.84
2023-07-24T01:43:49.075Z,59.51
2023-07-24T01:46:15.904Z,59.92
2023-07-24T01:48:42.746Z,60.04
2023-07-24T01:51:09.768Z,59.72
2023-07-24T01:53:36.785Z,59.84
2023-07-24T01:56:03.467Z,60.07
2023-07-24T01:58:30.376Z,60.27
2023-07-24T02:00:57.837Z,60.36
2023-07-24T02:03:24.704Z,60.39
2023-07-24T02:05:52.925Z,60.32
2023-07-24T02:08:19.928Z,60.17
2023-07-24T02:10:49.728Z,59.54
2023-07-24T02:13:16.718Z,60.09
2023-07-24T02:15:43.721Z,59.36
2023-07-24T02:18:10.756Z,59.46
2023-07-24T02:20:37.858Z,58.98
2023-07-24T02:23:04.784Z,59.32
2023-07-24T02:25:31.665Z,58.72
2023-07-24T02:27:58.605Z,58.44
2023-07-24T02:30:25.601Z,58.26
2023-07-24T02:32:52.624Z,58.61
2023-07-24T02:35:19.478Z,58.60
2023-07-24T02:37:46.616Z,58.59
2023-07-24T02:40:13.623Z,58.59
2023-07-24T02:42:40.543Z,59.10
2023-07-24T02:45:12.332Z,59.21
2023-07-24T02:47:39.503Z,60.15
2023-07-24T02:50:06.739Z,60.55
2023-07-24T02:52:33.777Z,60.27
2023-07-24T02:55:00.693Z,60.08
2023-07-24T02:57:27.676Z,60.20
2023-07-24T02:59:54.598Z,60.06
2023-07-24T03:02:21.727Z,59.23
2023-07-24T03:04:48.580Z,59.05
2023-07-24T03:07:15.419Z,58.81
2023-07-24T03:09:42.317Z,58.85
2023-07-24T03:12:09.341Z,58.75
2023-07-24T03:14:36.362Z,58.97
2023-07-24T03:17:03.727Z,58.88
2023-07-24T03:19:30.890Z,59.19
2023-07-24T03:21:57.793Z,58.90
2023-07-24T03:24:24.564Z,58.59
2023-07-24T03:26:51.625Z,58.17
2023-07-24T03:29:18.434Z,57.61
2023-07-24T03:31:45.302Z,57.45
2023-07-24T03:34:12.200Z,57.35
2023-07-24T03:36:42.935Z,57.66
2023-07-24T03:39:12.630Z,57.83
2023-07-24T03:41:40.188Z,57.81
2023-07-24T03:44:07.081Z,57.92
2023-07-24T03:46:34.023Z,59.06
2023-07-24T03:49:01.713Z,59.46
2023-07-24T03:51:28.757Z,66.84
2023-07-24T03:53:55.652Z,67.42
2023-07-24T03:56:22.433Z,70.15
2023-07-24T03:58:49.381Z,70.61
2023-07-24T04:01:16.154Z,67.59
2023-07-24T04:03:46.763Z,69.44
2023-07-24T04:06:13.541Z,69.70
2023-07-24T04:08:40.587Z,69.29
2023-07-24T04:11:07.393Z,69.63
2023-07-24T04:13:34.252Z,69.49
2023-07-24T04:16:01.276Z,69.04
2023-07-24T04:18:28.261Z,69.13
2023-07-24T04:20:56.723Z,67.99
2023-07-24T04:23:23.774Z,69.49
2023-07-24T04:25:51.089Z,69.68
2023-07-24T04:28:17.872Z,69.81
2023-07-24T04:30:44.665Z,71.00
2023-07-24T04:33:11.431Z,70.66
2023-07-24T04:35:38.309Z,69.28
2023-07-24T04:38:04.999Z,65.92
2023-07-24T04:40:31.771Z,65.72
2023-07-24T04:42:59.432Z,63.04
2023-07-24T04:45:26.190Z,61.73
2023-07-24T04:47:52.907Z,61.41
2023-07-24T04:50:19.787Z,61.16
2023-07-24T04:52:46.539Z,63.16
2023-07-24T04:55:13.286Z,64.14
2023-07-24T04:57:40.176Z,64.38
2023-07-24T05:00:07.364Z,64.28
2023-07-24T05:02:34.180Z,64.84
2023-07-24T05:05:01.079Z,64.64
2023-07-24T05:07:27.812Z,65.27
2023-07-24T05:09:54.558Z,65.59
2023-07-24T05:12:21.333Z,65.32
2023-07-24T05:14:48.185Z,66.25
2023-07-24T05:17:14.986Z,66.19
2023-07-24T05:19:41.865Z,64.37
2023-07-24T05:22:09.128Z,64.41
2023-07-24T05:24:35.939Z,65.16
2023-07-24T05:27:02.740Z,64.47
2023-07-24T05:29:29.468Z,65.46
2023-07-24T05:31:56.904Z,64.84
2023-07-24T05:34:23.876Z,63.48
2023-07-24T05:36:50.725Z,63.41
2023-07-24T05:39:17.463Z,62.41
2023-07-24T05:41:44.146Z,61.52
2023-07-24T05:44:10.934Z,59.87
2023-07-24T05:46:37.711Z,59.31
2023-07-24T05:49:05.112Z,58.23
2023-07-24T05:51:31.810Z,56.95
2023-07-24T05:53:58.689Z,54.44
2023-07-24T05:56:25.535Z,52.30
2023-07-24T05:58:52.363Z,50.13
2023-07-24T06:01:19.150Z,48.41
2023-07-24T06:03:46.241Z,48.75
2023-07-24T06:06:15.686Z,49.70
2023-07-24T06:08:42.445Z,50.00
2023-07-24T06:11:09.224Z,50.18
2023-07-24T06:13:35.948Z,50.65
2023-07-24T06:16:02.685Z,51.46
2023-07-24T06:18:31.876Z,51.61
2023-07-24T06:20:58.645Z,51.98
2023-07-24T06:23:25.333Z,52.26
2023-07-24T06:25:53.473Z,52.75
2023-07-24T06:28:20.480Z,52.06
2023-07-24T06:30:47.263Z,52.57
2023-07-24T06:33:14.029Z,52.72
2023-07-24T06:35:40.781Z,54.38
2023-07-24T06:38:09.608Z,54.16
2023-07-24T06:40:36.419Z,54.84
2023-07-24T06:43:03.093Z,55.63
2023-07-24T06:45:29.864Z,56.27
2023-07-24T06:47:56.680Z,56.16
2023-07-24T06:50:23.745Z,57.69
2023-07-24T06:52:52.423Z,58.40
2023-07-24T06:55:19.071Z,59.15
2023-07-24T06:57:47.820Z,58.07
2023-07-24T07:00:15.569Z,58.90
2023-07-24T07:02:42.394Z,57.83
2023-07-24T07:05:09.249Z,57.53
2023-07-24T07:07:36.062Z,58.17
2023-07-24T07:10:03.074Z,58.16
2023-07-24T07:12:30.058Z,58.33
2023-07-24T07:14:56.771Z,59.48
2023-07-24T07:17:23.648Z,60.82
2023-07-24T07:19:50.480Z,61.19
2023-07-24T07:22:17.147Z,61.55
2023-07-24T07:24:45.298Z,58.35
2023-07-24T07:27:12.071Z,56.67
2023-07-24T07:29:38.801Z,55.29
2023-07-24T07:32:05.810Z,53.17
2023-07-24T07:34:32.513Z,52.86
2023-07-24T07:36:59.241Z,52.05
2023-07-24T07:39:33.836Z,50.37
2023-07-24T07:44:34.710Z,48.34
2023-07-24T07:47:01.411Z,44.77
2023-07-24T07:49:31.040Z,43.15
2023-07-24T07:51:58.377Z,44.05
2023-07-24T07:54:25.000Z,41.57
2023-07-24T07:56:51.750Z,38.79
2023-07-24T07:59:18.402Z,37.33
2023-07-24T08:01:47.027Z,35.94
2023-07-24T08:04:13.785Z,35.46
2023-07-24T08:06:40.602Z,35.35
2023-07-24T08:09:07.312Z,36.01
2023-07-24T08:11:34.079Z,36.57
2023-07-24T08:14:00.870Z,35.35
2023-07-24T08:16:27.877Z,34.59
2023-07-24T08:18:57.408Z,34.18
2023-07-24T08:21:25.697Z,33.06
2023-07-24T08:23:52.432Z,33.87
2023-07-24T08:26:19.142Z,35.26
2023-07-24T08:28:45.987Z,36.04
2023-07-24T08:31:13.006Z,36.44
2023-07-24T08:33:39.877Z,37.33
2023-07-24T08:36:07.555Z,35.23
2023-07-24T08:38:34.725Z,31.47
2023-07-24T08:41:02.682Z,27.48
2023-07-24T08:43:30.063Z,25.80
2023-07-24T08:45:56.807Z,26.58
2023-07-24T08:48:23.577Z,30.02
2023-07-24T08:50:50.850Z,31.49
2023-07-24T08:53:17.919Z,31.67
2023-07-24T08:55:45.181Z,32.96
2023-07-24T08:58:11.931Z,34.42
2023-07-24T09:00:38.819Z,34.92
2023-07-24T09:03:06.589Z,35.49
2023-07-24T09:05:33.355Z,37.49
2023-07-24T09:08:00.146Z,37.13
2023-07-24T09:10:27.529Z,36.53
2023-07-24T09:12:54.308Z,35.89
2023-07-24T09:15:21.089Z,35.14
2023-07-24T09:17:54.604Z,34.53
2023-07-24T09:20:32.121Z,35.61
2023-07-24T09:23:12.031Z,36.25
2023-07-24T09:25:41.719Z,32.15
2023-07-24T09:28:15.125Z,32.03
2023-07-24T09:30:42.153Z,29.34
2023-07-24T09:33:09.329Z,27.20
2023-07-24T09:35:36.051Z,26.40
2023-07-24T09:38:03.666Z,26.92
2023-07-24T09:40:38.111Z,28.74
2023-07-24T09:43:30.009Z,26.79
2023-07-24T09:45:52.486Z,25.02
2023-07-24T09:50:50.480Z,25.51
2023-07-24T09:53:34.071Z,26.60
2023-07-24T09:56:02.856Z,27.44
2023-07-24T09:58:29.667Z,27.73
2023-07-24T10:00:56.694Z,27.71
2023-07-24T10:03:23.642Z,28.27
2023-07-24T10:05:51.999Z,28.65
2023-07-24T10:08:19.692Z,28.88
2023-07-24T10:10:46.719Z,27.69
2023-07-24T10:13:16.339Z,28.01
2023-07-24T10:15:43.823Z,28.03
2023-07-24T10:18:10.629Z,27.96
2023-07-24T10:20:37.970Z,28.45
2023-07-24T10:23:04.822Z,27.72
2023-07-24T10:25:35.400Z,29.12
2023-07-24T10:28:17.700Z,30.51
2023-07-24T10:30:45.647Z,31.48
2023-07-24T10:33:19.144Z,33.28
2023-07-24T10:35:49.476Z,33.15
2023-07-24T10:38:17.023Z,34.77
2023-07-24T10:40:44.219Z,35.78
2023-07-24T10:43:14.601Z,36.86
2023-07-24T10:45:48.748Z,37.84
2023-07-24T10:48:15.902Z,38.76
2023-07-24T10:50:44.050Z,39.73
2023-07-24T10:53:11.395Z,39.91
2023-07-24T10:55:38.324Z,41.01
2023-07-24T10:58:05.018Z,39.91
2023-07-24T11:00:31.815Z,40.90
2023-07-24T11:02:58.701Z,40.82
2023-07-24T11:05:25.712Z,40.59
2023-07-24T11:07:52.436Z,40.62
2023-07-24T11:10:21.188Z,41.79
2023-07-24T11:12:48.816Z,40.25
2023-07-24T11:15:15.592Z,40.59
2023-07-24T11:17:43.026Z,40.56
2023-07-24T11:20:13.616Z,40.58
2023-07-24T11:22:41.123Z,39.64
2023-07-24T11:25:08.445Z,39.86
2023-07-24T11:27:39.218Z,38.86
2023-07-24T11:30:06.440Z,36.28
2023-07-24T11:32:33.278Z,34.83
2023-07-24T11:35:00.051Z,33.84
2023-07-24T11:37:26.851Z,33.72
2023-07-24T11:40:00.528Z,33.97
2023-07-24T11:42:28.692Z,35.19
2023-07-24T11:44:55.515Z,37.23
2023-07-24T11:47:22.574Z,37.10
2023-07-24T11:49:59.837Z,37.42
2023-07-24T11:52:26.649Z,36.91
2023-07-24T11:55:02.485Z,36.86
2023-07-24T11:57:30.250Z,38.60
2023-07-24T11:59:59.206Z,39.06
2023-07-24T12:02:29.359Z,39.29
2023-07-24T12:04:59.856Z,38.87
2023-07-24T12:07:37.196Z,39.41
2023-07-24T12:10:04.703Z,39.67
2023-07-24T12:12:47.635Z,39.34
2023-07-24T12:15:16.713Z,39.51
2023-07-24T12:17:45.780Z,39.18
2023-07-24T12:20:12.884Z,39.24
2023-07-24T12:22:39.773Z,35.83
2023-07-24T12:25:06.957Z,34.67
2023-07-24T12:27:33.829Z,33.83
2023-07-24T12:30:00.916Z,33.95
2023-07-24T12:32:27.800Z,32.91
2023-07-24T12:34:54.684Z,32.79
2023-07-24T12:37:21.486Z,32.93
2023-07-24T12:39:48.492Z,32.08
2023-07-24T12:42:15.570Z,31.43
2023-07-24T12:44:42.336Z,31.62
2023-07-24T12:47:09.320Z,30.84
2023-07-24T12:49:36.174Z,31.32
2023-07-24T12:52:03.672Z,31.45
2023-07-24T12:54:37.194Z,31.18
2023-07-24T12:57:13.956Z,31.54
2023-07-24T12:59:40.839Z,31.67
2023-07-24T13:02:08.084Z,32.61
2023-07-24T13:04:34.933Z,32.48
2023-07-24T13:07:01.692Z,33.50
2023-07-24T13:09:28.916Z,33.69
2023-07-24T13:11:55.811Z,34.69
2023-07-24T13:14:22.615Z,35.74
2023-07-24T13:16:49.588Z,35.78
2023-07-24T13:19:20.621Z,36.24
2023-07-24T13:21:48.359Z,36.64
2023-07-24T13:24:15.767Z,37.32
2023-07-24T13:26:42.609Z,37.61
2023-07-24T13:29:09.271Z,38.88
2023-07-24T13:31:36.700Z,39.05
2023-07-24T13:34:03.505Z,39.08
2023-07-24T13:36:30.661Z,40.49
2023-07-24T13:38:57.885Z,41.72
2023-07-24T13:41:24.730Z,41.00
2023-07-24T13:43:51.491Z,40.57
2023-07-24T13:46:18.522Z,39.22
2023-07-24T13:48:45.642Z,38.73
2023-07-24T13:51:12.487Z,38.73
2023-07-24T13:53:39.275Z,38.90
2023-07-24T13:56:06.414Z,38.21
2023-07-24T13:58:33.144Z,39.59
2023-07-24T14:01:00.002Z,38.94
2023-07-24T14:03:30.846Z,40.18
2023-07-24T14:05:59.219Z,40.31
2023-07-24T14:08:26.254Z,40.08
2023-07-24T14:10:53.063Z,39.21
2023-07-24T14:13:23.025Z,39.34
2023-07-24T14:15:49.820Z,40.25
2023-07-24T14:18:16.539Z,39.65
2023-07-24T14:20:43.320Z,38.73
2023-07-24T14:23:10.074Z,38.58
2023-07-24T14:25:36.984Z,38.07
2023-07-24T14:28:03.877Z,38.57
2023-07-24T14:30:30.772Z,38.78
2023-07-24T14:32:57.614Z,38.98
2023-07-24T14:35:24.432Z,39.21
2023-07-24T14:37:51.184Z,39.12
2023-07-24T14:40:18.150Z,39.30
2023-07-24T14:42:44.913Z,40.11
2023-07-24T14:45:11.843Z,40.33
2023-07-24T14:47:38.657Z,40.57
2023-07-24T14:50:05.964Z,40.89
2023-07-24T14:52:32.655Z,41.35
2023-07-24T14:54:59.383Z,41.18
2023-07-24T14:57:26.546Z,40.26
2023-07-24T14:59:53.867Z,40.12
2023-07-24T15:02:20.586Z,38.46
2023-07-24T15:04:47.351Z,37.64
2023-07-24T15:07:14.048Z,36.79
2023-07-24T15:09:40.856Z,36.46
2023-07-24T15:12:07.751Z,36.38
2023-07-24T15:14:34.570Z,36.78
2023-07-24T15:17:01.269Z,36.19
2023-07-24T15:19:28.060Z,36.54
2023-07-24T15:21:55.274Z,36.48
2023-07-24T15:24:22.531Z,36.31
2023-07-24T15:26:49.422Z,36.65
2023-07-24T15:29:19.430Z,36.96
2023-07-24T15:31:46.877Z,37.81
2023-07-24T15:34:14.012Z,37.79
2023-07-24T15:36:40.854Z,38.63
2023-07-24T15:39:07.637Z,39.10
2023-07-24T15:41:34.394Z,40.09
2023-07-24T15:44:01.264Z,40.85
2023-07-24T15:46:30.593Z,40.71
2023-07-24T15:48:57.793Z,41.12
2023-07-24T15:51:25.922Z,41.51
2023-07-24T15:53:52.694Z,42.59
2023-07-24T15:56:19.727Z,43.35
2023-07-24T15:58:47.411Z,53.78
2023-07-24T16:01:14.189Z,54.39
2023-07-24T16:03:41.030Z,55.96
2023-07-24T16:06:08.373Z,55.47
2023-07-24T16:08:35.152Z,55.24
2023-07-24T16:11:02.556Z,55.28
2023-07-24T16:13:29.281Z,55.41
2023-07-24T16:15:56.059Z,55.61
2023-07-24T16:18:22.904Z,55.66
2023-07-24T16:20:49.798Z,54.77
2023-07-24T16:23:16.544Z,54.26
2023-07-24T16:25:43.312Z,54.72
2023-07-24T16:28:10.067Z,53.48
2023-07-24T16:30:36.950Z,52.45
2023-07-24T16:33:03.951Z,52.77
2023-07-24T16:35:30.761Z,53.02
2023-07-24T16:37:57.479Z,51.74
2023-07-24T16:40:24.262Z,50.80
2023-07-24T16:42:56.029Z,51.37
2023-07-24T16:47:53.812Z,53.21
2023-07-24T16:50:20.716Z,55.29
2023-07-24T16:52:47.473Z,55.97
2023-07-24T16:55:14.180Z,56.63
2023-07-24T16:57:40.890Z,56.99
2023-07-24T17:00:08.083Z,56.68
2023-07-24T17:02:36.943Z,55.15
2023-07-24T17:05:03.833Z,55.77
2023-07-24T17:07:30.720Z,55.17
2023-07-24T17:09:57.369Z,54.78
2023-07-24T17:12:24.120Z,55.14
2023-07-24T17:14:52.287Z,54.89
2023-07-24T17:17:19.167Z,55.84
2023-07-24T17:19:45.970Z,55.70
2023-07-24T17:22:12.677Z,56.66
2023-07-24T17:24:39.517Z,57.54
2023-07-24T17:27:06.536Z,57.64
2023-07-24T17:29:33.358Z,57.99
2023-07-24T17:32:01.798Z,58.06
2023-07-24T17:34:28.599Z,58.59
2023-07-24T17:36:56.422Z,59.53
2023-07-24T17:39:23.204Z,60.12
2023-07-24T17:41:50.075Z,60.24
2023-07-24T17:44:16.820Z,60.97
2023-07-24T17:46:43.631Z,62.00
2023-07-24T17:49:10.807Z,61.60
2023-07-24T17:51:37.603Z,61.97
2023-07-24T17:54:04.430Z,61.86
2023-07-24T17:56:31.205Z,61.47
2023-07-24T17:58:57.971Z,61.52
2023-07-24T18:01:24.794Z,61.61
2023-07-24T18:03:51.622Z,61.40
2023-07-24T18:06:18.342Z,61.44
2023-07-24T18:08:45.108Z,61.35
2023-07-24T18:11:11.836Z,60.66
2023-07-24T18:13:38.605Z,60.48
2023-07-24T18:16:05.727Z,61.86
2023-07-24T18:18:32.456Z,59.27
2023-07-24T18:21:04.473Z,59.99
2023-07-24T18:23:34.065Z,61.57
2023-07-24T18:26:00.809Z,61.69
2023-07-24T18:28:27.605Z,59.87
2023-07-24T18:30:54.318Z,60.16
2023-07-24T18:33:20.969Z,60.63
2023-07-24T18:35:47.711Z,61.29
2023-07-24T18:38:14.660Z,61.87
2023-07-24T18:40:41.458Z,60.83
2023-07-24T18:43:08.221Z,61.60
2023-07-24T18:45:35.111Z,61.17
2023-07-24T18:48:02.987Z,60.07
2023-07-24T18:50:30.079Z,60.73
2023-07-24T18:52:56.885Z,62.12
2023-07-24T18:55:23.671Z,62.96
2023-07-24T18:57:50.511Z,63.59
2023-07-24T19:00:19.064Z,64.40
2023-07-24T19:02:48.532Z,64.12
2023-07-24T19:05:15.385Z,64.82
2023-07-24T19:07:42.105Z,64.48
2023-07-24T19:10:11.419Z,64.47
2023-07-24T19:12:39.789Z,64.95
2023-07-24T19:15:09.506Z,65.44
2023-07-24T19:17:36.433Z,64.81
2023-07-24T19:20:03.357Z,65.15
2023-07-24T19:22:30.096Z,65.57
2023-07-24T19:24:57.015Z,66.22
2023-07-24T19:27:23.783Z,65.95
2023-07-24T19:29:51.484Z,67.20
2023-07-24T19:32:18.365Z,67.48
2023-07-24T19:34:45.317Z,68.75
2023-07-24T19:37:12.231Z,68.97
2023-07-24T19:39:41.949Z,69.37
2023-07-24T19:42:12.229Z,69.08
2023-07-24T19:44:39.445Z,69.22
2023-07-24T19:47:06.374Z,68.85
2023-07-24T19:49:36.295Z,68.73
2023-07-24T19:52:03.247Z,69.21
2023-07-24T19:54:30.496Z,69.42
2023-07-24T19:56:57.515Z,69.12
2023-07-24T19:59:26.649Z,69.22
2023-07-24T20:01:56.870Z,68.89
2023-07-24T20:04:23.619Z,68.57
2023-07-24T20:06:50.359Z,68.43
2023-07-24T20:09:17.688Z,69.03
2023-07-24T20:11:46.678Z,68.46
2023-07-24T20:14:14.878Z,68.50
2023-07-24T20:16:41.828Z,69.05
2023-07-24T20:19:08.524Z,68.96
2023-07-24T20:21:35.276Z,68.96
2023-07-24T20:24:11.835Z,68.66
2023-07-24T20:26:38.669Z,68.90
2023-07-24T20:29:05.715Z,68.61
2023-07-24T20:31:32.955Z,68.53
2023-07-24T20:34:00.040Z,68.48
2023-07-24T20:36:26.780Z,68.83
2023-07-24T20:38:53.490Z,68.44
2023-07-24T20:41:20.309Z,68.86
2023-07-24T20:43:47.152Z,68.01
2023-07-24T20:46:14.975Z,67.83
2023-07-24T20:48:41.954Z,68.00
2023-07-24T20:51:21.540Z,67.36
2023-07-24T20:53:48.689Z,68.12
2023-07-24T20:56:15.531Z,68.26
2023-07-24T20:58:42.322Z,68.32
2023-07-24T21:01:09.696Z,68.36
2023-07-24T21:03:36.557Z,69.21
2023-07-24T21:06:04.014Z,69.17
2023-07-24T21:08:30.902Z,69.29
2023-07-24T21:10:57.644Z,68.56
2023-07-24T21:13:24.388Z,68.25
2023-07-24T21:15:55.869Z,69.02
2023-07-24T21:18:22.975Z,68.68
2023-07-24T21:20:49.763Z,68.92
2023-07-24T21:23:16.559Z,68.87
2023-07-24T21:25:51.520Z,68.99
2023-07-24T21:28:18.211Z,69.01
2023-07-24T21:30:44.971Z,69.35
2023-07-24T21:33:11.790Z,69.64
2023-07-24T21:35:38.631Z,69.89
2023-07-24T21:38:05.280Z,70.31
2023-07-24T21:40:32.061Z,70.13
2023-07-24T21:42:59.070Z,70.23
2023-07-24T21:45:26.015Z,69.42
2023-07-24T21:47:52.828Z,69.88
2023-07-24T21:50:19.637Z,68.64
2023-07-24T21:52:46.355Z,68.73
2023-07-24T21:55:13.061Z,68.56
2023-07-24T21:57:39.782Z,69.37
2023-07-24T22:00:06.919Z,70.97
2023-07-24T22:02:33.898Z,70.38
2023-07-24T22:05:00.691Z,70.60
2023-07-24T22:07:27.397Z,70.20
2023-07-24T22:09:54.200Z,69.16
2023-07-24T22:12:20.946Z,69.13
2023-07-24T22:14:47.716Z,69.59
2023-07-24T22:17:14.472Z,69.88
2023-07-24T22:19:41.209Z,69.25
2023-07-24T22:22:07.996Z,69.59
2023-07-24T22:24:35.216Z,69.71
2023-07-24T22:27:02.032Z,69.65
2023-07-24T22:29:28.868Z,69.94
2023-07-24T22:31:55.742Z,69.67
2023-07-24T22:34:22.466Z,69.36
2023-07-24T22:36:49.258Z,70.28
2023-07-24T22:39:16.540Z,70.78
2023-07-24T22:41:44.751Z,70.90
2023-07-24T22:44:11.700Z,70.63
2023-07-24T22:46:38.741Z,70.61
2023-07-24T22:49:06.142Z,70.61
2023-07-24T22:51:33.242Z,70.54
2023-07-24T22:54:00.548Z,70.50
2023-07-24T22:56:27.307Z,70.71
2023-07-24T22:59:12.669Z,70.71
2023-07-24T23:01:39.302Z,70.34
2023-07-24T23:04:06.151Z,70.36
2023-07-24T23:06:33.028Z,70.58
2023-07-24T23:08:59.732Z,70.98
2023-07-24T23:11:26.513Z,70.91
2023-07-24T23:13:53.347Z,71.29
2023-07-24T23:16:20.305Z,70.71
2023-07-24T23:18:47.024Z,70.55
2023-07-24T23:21:13.677Z,70.37
2023-07-24T23:23:40.454Z,70.66
2023-07-24T23:26:07.632Z,70.60
2023-07-24T23:28:34.307Z,70.66
2023-07-24T23:31:10.245Z,70.65
2023-07-24T23:33:37.433Z,70.94
2023-07-24T23:36:08.734Z,70.78
2023-07-24T23:38:36.454Z,70.84
2023-07-24T23:41:03.939Z,71.20
2023-07-24T23:43:30.752Z,71.99
2023-07-24T23:45:57.586Z,71.98
2023-07-24T23:48:24.616Z,72.60
2023-07-24T23:50:52.153Z,72.49
2023-07-24T23:53:19.623Z,72.25
2023-07-24T23:55:46.358Z,71.50
2023-07-24T23:58:13.133Z,71.29
